Time;durP1;ratioP1;P1;durP2;ratioP2;P2;SDS_P1;SDS_P2;PMS_P1;PMS_P2;Temp;Humidity;BMP_temperature;BMP_pressure;BME280_temperature;BME280_humidity;BME280_pressure;Samples;Min_cycle;Max_cycle;Signal;HPM_P1;HPM_P2
2023/01/09 00:00:46;;;;;;;9.77;3.90;;;7.70;99.90;;;;;;6286138;22;20243;-87
2023/01/09 00:03:12;;;;;;;8.50;3.95;;;7.70;99.90;;;;;;6285357;22;20148;-87
2023/01/09 00:05:38;;;;;;;3.63;3.00;;;7.70;99.90;;;;;;6286345;22;20191;-87
2023/01/09 00:08:04;;;;;;;4.40;3.85;;;7.70;99.90;;;;;;6285840;22;20152;-86
2023/01/09 00:10:30;;;;;;;4.00;2.80;;;7.70;99.90;;;;;;6285070;22;20250;-86
2023/01/09 00:12:55;;;;;;;4.00;2.67;;;7.70;99.90;;;;;;6287129;22;20140;-87
2023/01/09 00:15:21;;;;;;;4.33;3.90;;;7.70;99.90;;;;;;6285251;22;20148;-88
2023/01/09 00:17:48;;;;;;;7.50;3.90;;;7.70;99.90;;;;;;6284713;22;20458;-87
2023/01/09 00:20:14;;;;;;;5.07;3.30;;;7.70;99.90;;;;;;6287465;22;20446;-89
2023/01/09 00:22:46;;;;;;;6.77;3.80;;;7.80;99.90;;;;;;6286434;22;20241;-86
2023/01/09 00:25:11;;;;;;;7.47;3.88;;;7.70;99.90;;;;;;6286231;22;20142;-86
2023/01/09 00:27:37;;;;;;;12.93;4.00;;;7.70;99.90;;;;;;6286564;22;20148;-87
2023/01/09 00:30:03;;;;;;;5.00;3.43;;;7.70;99.90;;;;;;6286842;22;20220;-87
2023/01/09 00:32:28;;;;;;;5.40;2.60;;;7.70;99.90;;;;;;6286846;22;20148;-86
2023/01/09 00:34:55;;;;;;;4.70;3.60;;;7.60;99.90;;;;;;6284404;22;20487;-88
2023/01/09 00:37:21;;;;;;;4.20;3.28;;;7.70;99.90;;;;;;6285767;22;20172;-88
2023/01/09 00:39:47;;;;;;;5.25;4.05;;;7.70;99.90;;;;;;6284728;22;20158;-87
2023/01/09 00:42:21;;;;;;;5.00;3.60;;;7.60;99.90;;;;;;6288039;22;20164;-88
2023/01/09 00:44:57;;;;;;;3.97;2.80;;;7.70;99.90;;;;;;6288511;22;20125;-88
2023/01/09 00:47:31;;;;;;;9.70;3.47;;;7.70;99.90;;;;;;6286656;22;20205;-86
2023/01/09 00:50:02;;;;;;;4.60;3.33;;;9.50;99.90;;;;;;6287034;22;20571;-88
2023/01/09 00:52:31;;;;;;;6.60;3.70;;;9.50;99.90;;;;;;6288341;22;20143;-88
2023/01/09 00:54:58;;;;;;;5.60;2.50;;;8.60;99.90;;;;;;6289358;22;20152;-88
2023/01/09 00:57:24;;;;;;;5.85;4.10;;;7.50;99.90;;;;;;6287260;22;20482;-87
2023/01/09 00:59:51;;;;;;;5.27;3.40;;;9.30;99.90;;;;;;6284286;22;20225;-88
2023/01/09 01:02:17;;;;;;;3.85;3.40;;;8.50;99.90;;;;;;6286105;22;20172;-87
2023/01/09 01:07:39;;;;;;;4.97;3.63;;;9.30;99.90;;;;;;6286661;22;20158;-88
2023/01/09 01:10:19;;;;;;;3.85;3.50;;;9.20;99.90;;;;;;6283357;22;20219;-88
2023/01/09 01:12:45;;;;;;;3.40;2.97;;;7.50;99.90;;;;;;6277083;22;20140;-89
2023/01/09 01:15:13;;;;;;;4.43;3.17;;;7.20;99.90;;;;;;6282251;22;20156;-88
2023/01/09 01:17:39;;;;;;;4.22;2.65;;;7.50;99.90;;;;;;6284133;22;20147;-88
2023/01/09 01:20:12;;;;;;;7.00;4.05;;;8.30;99.90;;;;;;6284692;22;20213;-89
2023/01/09 01:22:43;;;;;;;4.15;3.28;;;7.50;99.90;;;;;;6284494;22;20439;-89
2023/01/09 01:25:11;;;;;;;5.90;3.78;;;8.60;99.90;;;;;;6282147;22;20167;-89
2023/01/09 01:27:39;;;;;;;8.25;3.95;;;8.80;99.90;;;;;;6286319;22;20140;-89
2023/01/09 01:30:07;;;;;;;3.38;2.42;;;9.00;99.90;;;;;;6285000;22;20167;-89
2023/01/09 01:32:33;;;;;;;5.90;3.28;;;7.40;99.90;;;;;;6284670;22;20148;-88
2023/01/09 01:34:59;;;;;;;6.10;3.40;;;9.20;99.90;;;;;;6284878;22;20158;-88
2023/01/09 01:37:27;;;;;;;4.60;3.10;;;7.40;99.90;;;;;;6283464;22;20556;-88
2023/01/09 01:39:56;;;;;;;4.55;2.50;;;8.90;99.90;;;;;;6284268;22;20144;-88
2023/01/09 01:42:22;;;;;;;3.92;2.92;;;6.70;99.90;;;;;;6284333;22;20172;-89
2023/01/09 01:45:10;;;;;;;2.70;2.45;;;8.50;99.90;;;;;;6284077;22;20152;-89
2023/01/09 01:47:53;;;;;;;4.75;2.97;;;7.40;99.90;;;;;;6285269;22;20167;-90
2023/01/09 01:50:50;;;;;;;4.30;3.00;;;7.30;99.90;;;;;;6280498;22;20594;-90
2023/01/09 01:53:18;;;;;;;3.10;2.33;;;6.20;99.90;;;;;;6281241;22;20654;-89
2023/01/09 01:55:56;;;;;;;2.75;2.55;;;7.50;99.90;;;;;;6280239;22;20175;-89
2023/01/09 01:58:24;;;;;;;2.88;2.17;;;7.50;99.90;;;;;;6280059;22;20201;-89
2023/01/09 02:00:50;;;;;;;2.83;2.30;;;7.20;99.90;;;;;;6280466;22;20152;-89
2023/01/09 02:03:19;;;;;;;2.97;1.60;;;7.50;99.90;;;;;;6280253;22;20159;-90
2023/01/09 02:05:44;;;;;;;3.88;2.30;;;8.70;99.90;;;;;;6276532;22;20515;-89
2023/01/09 02:08:11;;;;;;;3.27;2.40;;;7.50;99.90;;;;;;6276164;22;20144;-88
2023/01/09 02:10:38;;;;;;;3.10;2.00;;;7.40;99.90;;;;;;6276534;22;20586;-88
2023/01/09 02:13:05;;;;;;;2.13;1.92;;;7.30;99.90;;;;;;6276760;22;20223;-89
2023/01/09 02:16:01;;;;;;;2.97;1.98;;;7.20;99.90;;;;;;6275051;22;20698;-89
2023/01/09 02:19:05;;;;;;;1.40;1.30;;;7.40;99.90;;;;;;6276450;22;20144;-89
2023/01/09 02:22:05;;;;;;;2.00;1.67;;;7.40;99.90;;;;;;6272439;22;20217;-88
2023/01/09 02:25:11;;;;;;;1.67;1.40;;;7.50;99.90;;;;;;6275822;22;20175;-88
2023/01/09 02:27:58;;;;;;;3.05;1.27;;;7.50;99.90;;;;;;6275060;22;20147;-88
2023/01/09 02:30:45;;;;;;;1.17;1.00;;;7.50;99.90;;;;;;6274944;22;20254;-88
2023/01/09 02:33:40;;;;;;;1.10;1.00;;;7.50;99.90;;;;;;6275635;22;20745;-88
2023/01/09 02:36:22;;;;;;;1.30;1.20;;;7.40;99.90;;;;;;6274075;22;20179;-88
2023/01/09 02:39:07;;;;;;;2.17;1.20;;;7.30;99.90;;;;;;6272726;22;20246;-87
2023/01/09 02:41:54;;;;;;;1.52;0.85;;;7.40;99.90;;;;;;6272724;22;20602;-87
2023/01/09 02:44:28;;;;;;;2.35;1.30;;;7.30;99.90;;;;;;6274601;22;20140;-87
2023/01/09 02:47:01;;;;;;;2.60;1.00;;;7.40;99.90;;;;;;6273121;22;20184;-88
2023/01/09 02:49:27;;;;;;;1.30;1.00;;;7.30;99.90;;;;;;6274763;22;20151;-89
2023/01/09 02:52:03;;;;;;;1.10;0.90;;;7.30;99.90;;;;;;6278559;22;20162;-89
2023/01/09 02:54:48;;;;;;;1.17;0.90;;;7.30;99.90;;;;;;6278581;22;20197;-89
2023/01/09 02:57:41;;;;;;;1.13;1.02;;;7.30;99.90;;;;;;6277256;22;20176;-90
2023/01/09 03:00:23;;;;;;;0.82;0.80;;;7.20;99.90;;;;;;6280826;22;20142;-91
2023/01/09 03:02:56;;;;;;;1.33;0.95;;;7.10;99.90;;;;;;6282285;22;20514;-89
2023/01/09 03:05:31;;;;;;;0.95;0.85;;;7.10;99.90;;;;;;6284328;22;20132;-89
2023/01/09 03:08:04;;;;;;;2.53;1.33;;;7.00;99.90;;;;;;6281877;22;20186;-89
2023/01/09 03:10:34;;;;;;;1.33;0.80;;;6.90;99.90;;;;;;6281723;22;20162;-88
2023/01/09 03:13:01;;;;;;;1.20;0.73;;;7.00;99.90;;;;;;6281548;22;20170;-89
2023/01/09 03:15:32;;;;;;;2.75;2.55;;;7.00;99.90;;;;;;6278184;22;20171;-89
2023/01/09 03:17:59;;;;;;;0.70;0.70;;;9.00;99.90;;;;;;6275088;22;20147;-89
2023/01/09 03:20:26;;;;;;;0.85;0.80;;;7.00;99.90;;;;;;6274346;22;20167;-89
2023/01/09 03:22:57;;;;;;;2.25;0.77;;;7.10;99.90;;;;;;6277815;22;20202;-89
2023/01/09 03:25:24;;;;;;;1.40;0.95;;;7.30;99.90;;;;;;6279827;22;20151;-89
2023/01/09 03:27:58;;;;;;;1.25;1.15;;;7.30;99.90;;;;;;6277719;22;20158;-89
2023/01/09 03:30:25;;;;;;;0.52;0.35;;;7.40;99.90;;;;;;6276835;22;20144;-90
2023/01/09 03:32:50;;;;;;;0.60;0.40;;;7.40;99.90;;;;;;6279894;22;20155;-89
2023/01/09 03:35:16;;;;;;;0.47;0.37;;;7.40;99.90;;;;;;6279848;22;20226;-91
2023/01/09 03:37:41;;;;;;;0.80;0.40;;;7.40;99.90;;;;;;6277095;22;20617;-90
2023/01/09 03:40:08;;;;;;;2.77;1.07;;;7.30;99.90;;;;;;6287445;22;20667;-90
2023/01/09 03:42:33;;;;;;;1.73;0.50;;;7.20;99.90;;;;;;6289690;22;20203;-89
2023/01/09 03:44:59;;;;;;;1.43;0.30;;;7.20;99.90;;;;;;6291837;22;20179;-89
2023/01/09 03:47:24;;;;;;;2.70;0.67;;;6.80;99.90;;;;;;6287824;22;20187;-89
2023/01/09 03:49:50;;;;;;;0.40;0.40;;;6.60;99.90;;;;;;6281718;22;20151;-90
2023/01/09 03:52:15;;;;;;;0.30;0.30;;;6.50;99.90;;;;;;6282421;22;20680;-88
2023/01/09 03:54:41;;;;;;;0.40;0.40;;;6.50;99.90;;;;;;6280518;22;20152;-89
2023/01/09 03:57:06;;;;;;;0.50;0.40;;;6.40;99.90;;;;;;6278885;22;20178;-91
2023/01/09 03:59:32;;;;;;;0.50;0.40;;;6.40;99.90;;;;;;6277646;22;20158;-90
2023/01/09 04:01:57;;;;;;;0.30;0.30;;;6.30;99.90;;;;;;6279924;22;20221;-89
2023/01/09 04:04:23;;;;;;;0.50;0.40;;;6.30;99.90;;;;;;6283302;22;20474;-89
2023/01/09 04:06:48;;;;;;;0.30;0.30;;;6.30;99.90;;;;;;6283592;22;20633;-88
2023/01/09 04:09:14;;;;;;;0.53;0.30;;;6.20;99.90;;;;;;6282988;22;20848;-89
2023/01/09 04:11:39;;;;;;;0.50;0.30;;;6.20;99.90;;;;;;6282602;22;20167;-90
2023/01/09 04:14:05;;;;;;;0.40;0.40;;;6.20;99.90;;;;;;6282978;22;20194;-89
2023/01/09 04:16:30;;;;;;;0.67;0.40;;;6.20;99.90;;;;;;6277076;22;20175;-89
2023/01/09 04:18:56;;;;;;;0.50;0.50;;;6.20;99.90;;;;;;6279367;22;20793;-88
2023/01/09 04:21:21;;;;;;;0.73;0.37;;;6.20;99.90;;;;;;6278258;22;20176;-88
2023/01/09 04:23:47;;;;;;;0.60;0.40;;;6.10;99.90;;;;;;6277701;22;20152;-89
2023/01/09 04:26:13;;;;;;;0.80;0.47;;;6.20;99.90;;;;;;6275876;22;20163;-88
2023/01/09 04:28:38;;;;;;;0.90;0.70;;;6.10;99.90;;;;;;6273397;22;20457;-88
2023/01/09 04:31:04;;;;;;;0.57;0.40;;;6.10;99.90;;;;;;6279439;22;20478;-90
2023/01/09 04:33:29;;;;;;;0.63;0.33;;;6.10;99.90;;;;;;6279180;22;20148;-86
2023/01/09 04:35:55;;;;;;;0.67;0.67;;;6.10;99.90;;;;;;6276029;22;20245;-86
2023/01/09 04:38:21;;;;;;;0.40;0.33;;;6.10;99.90;;;;;;6277825;22;20202;-88
2023/01/09 04:40:47;;;;;;;0.70;0.70;;;6.00;99.90;;;;;;6278961;22;20199;-89
2023/01/09 04:43:13;;;;;;;2.85;0.90;;;6.00;99.90;;;;;;6278418;22;20160;-88
2023/01/09 04:45:39;;;;;;;0.60;0.60;;;5.90;99.90;;;;;;6274956;22;20567;-88
2023/01/09 04:48:05;;;;;;;1.23;0.40;;;5.90;99.90;;;;;;6274802;22;20167;-88
2023/01/09 04:50:30;;;;;;;0.38;0.38;;;5.90;99.90;;;;;;6275242;22;20152;-87
2023/01/09 04:52:56;;;;;;;1.50;0.67;;;5.90;99.90;;;;;;6275722;22;20160;-88
2023/01/09 04:55:22;;;;;;;2.83;0.50;;;6.20;99.90;;;;;;6272579;22;20160;-87
2023/01/09 04:57:47;;;;;;;0.83;0.80;;;5.90;99.90;;;;;;6269970;22;20192;-85
2023/01/09 05:00:13;;;;;;;2.10;0.63;;;5.90;99.90;;;;;;6268857;22;20151;-85
2023/01/09 05:02:40;;;;;;;3.20;0.70;;;6.00;99.90;;;;;;6272433;22;20183;-84
2023/01/09 05:05:07;;;;;;;0.95;0.60;;;6.00;99.90;;;;;;6271929;22;20156;-85
2023/01/09 05:07:33;;;;;;;3.63;1.02;;;5.90;99.90;;;;;;6270705;22;20230;-85
2023/01/09 05:09:59;;;;;;;1.00;0.40;;;5.90;99.90;;;;;;6268657;22;20231;-86
2023/01/09 05:12:25;;;;;;;0.60;0.50;;;6.00;99.90;;;;;;6273633;22;20160;-85
2023/01/09 05:14:50;;;;;;;3.50;0.60;;;6.00;99.90;;;;;;6273602;22;20235;-86
2023/01/09 05:17:16;;;;;;;2.63;0.70;;;6.00;99.90;;;;;;6268039;22;20183;-85
2023/01/09 05:19:44;;;;;;;1.20;1.10;;;6.00;99.90;;;;;;6272098;22;20213;-86
2023/01/09 05:22:11;;;;;;;1.33;0.45;;;6.00;99.90;;;;;;6273492;22;20176;-84
2023/01/09 05:24:36;;;;;;;5.53;0.60;;;6.00;99.90;;;;;;6272432;22;20148;-85
2023/01/09 05:27:02;;;;;;;1.33;1.00;;;6.00;99.90;;;;;;6270554;22;20500;-84
2023/01/09 05:29:28;;;;;;;1.33;0.60;;;6.00;99.90;;;;;;6268177;22;20228;-85
2023/01/09 05:31:53;;;;;;;1.23;0.70;;;6.00;99.90;;;;;;6274173;22;20154;-86
2023/01/09 05:34:19;;;;;;;1.70;0.80;;;6.00;99.90;;;;;;6273360;22;20372;-86
2023/01/09 05:36:45;;;;;;;0.82;0.80;;;6.00;99.90;;;;;;6271769;22;20712;-85
2023/01/09 05:39:11;;;;;;;2.20;0.70;;;5.90;99.90;;;;;;6271876;22;20160;-87
2023/01/09 05:41:36;;;;;;;2.20;1.40;;;6.00;99.90;;;;;;6272977;22;20246;-89
2023/01/09 05:44:03;;;;;;;8.93;0.97;;;5.90;99.90;;;;;;6275644;22;20386;-88
2023/01/09 05:46:29;;;;;;;1.63;1.50;;;5.90;99.90;;;;;;6273537;22;20172;-88
2023/01/09 05:48:55;;;;;;;5.72;2.05;;;5.90;99.90;;;;;;6276785;22;20245;-87
2023/01/09 05:51:20;;;;;;;2.57;1.20;;;5.80;99.90;;;;;;6272873;22;20591;-86
2023/01/09 05:53:46;;;;;;;3.20;0.90;;;5.80;99.90;;;;;;6275642;22;20151;-87
2023/01/09 05:56:12;;;;;;;1.43;1.07;;;5.80;99.90;;;;;;6272161;22;20395;-86
2023/01/09 05:58:37;;;;;;;4.90;1.03;;;5.70;99.90;;;;;;6278453;22;20200;-85
2023/01/09 06:01:03;;;;;;;3.73;0.87;;;5.60;99.90;;;;;;6279225;22;20144;-85
2023/01/09 06:03:28;;;;;;;1.70;0.70;;;5.50;99.90;;;;;;6279100;22;20155;-85
2023/01/09 06:05:54;;;;;;;2.20;1.40;;;5.50;99.90;;;;;;6274350;22;20167;-86
2023/01/09 06:08:19;;;;;;;1.03;0.70;;;5.50;99.90;;;;;;6271985;22;20197;-83
2023/01/09 06:10:45;;;;;;;4.67;1.13;;;5.50;99.90;;;;;;6273164;22;20136;-84
2023/01/09 06:13:11;;;;;;;4.55;1.30;;;5.50;99.90;;;;;;6272072;22;20240;-85
2023/01/09 06:15:36;;;;;;;1.03;0.60;;;5.50;99.90;;;;;;6268600;22;20587;-83
2023/01/09 06:18:03;;;;;;;6.43;0.80;;;5.50;99.90;;;;;;6270044;22;20152;-83
2023/01/09 06:20:29;;;;;;;7.97;1.20;;;5.50;99.90;;;;;;6270660;22;20209;-84
2023/01/09 06:22:54;;;;;;;1.63;0.70;;;5.40;99.90;;;;;;6271217;22;20247;-84
2023/01/09 06:25:20;;;;;;;7.93;1.37;;;5.40;99.90;;;;;;6273825;22;20174;-85
2023/01/09 06:27:46;;;;;;;10.27;1.83;;;5.20;99.90;;;;;;6273018;22;20147;-85
2023/01/09 06:30:11;;;;;;;4.83;1.17;;;5.10;99.90;;;;;;6271545;22;20148;-84
2023/01/09 06:32:37;;;;;;;2.70;1.10;;;5.20;99.90;;;;;;6273229;22;20174;-84
2023/01/09 06:35:03;;;;;;;5.30;0.90;;;5.20;99.90;;;;;;6273166;22;20213;-84
2023/01/09 06:37:28;;;;;;;6.17;1.10;;;5.20;99.90;;;;;;6268890;22;20175;-84
2023/01/09 06:39:54;;;;;;;5.57;1.77;;;5.20;99.90;;;;;;6270844;22;20499;-85
2023/01/09 06:42:20;;;;;;;5.50;1.20;;;5.30;99.90;;;;;;6268766;22;20164;-85
2023/01/09 06:44:46;;;;;;;5.97;1.55;;;5.30;99.90;;;;;;6272037;22;20167;-85
2023/01/09 06:47:11;;;;;;;2.33;0.67;;;5.40;99.90;;;;;;6272378;22;20656;-84
2023/01/09 06:49:37;;;;;;;5.83;1.50;;;5.40;99.90;;;;;;6265087;22;20230;-84
2023/01/09 06:52:04;;;;;;;5.80;1.03;;;5.50;99.90;;;;;;6267644;22;20136;-85
2023/01/09 06:54:30;;;;;;;2.25;0.70;;;5.60;99.90;;;;;;6263748;22;20144;-86
2023/01/09 06:56:55;;;;;;;4.87;1.43;;;5.70;99.90;;;;;;6269148;22;20489;-85
2023/01/09 06:59:21;;;;;;;0.60;0.60;;;5.80;99.90;;;;;;6267315;22;20144;-86
2023/01/09 07:01:46;;;;;;;4.93;1.60;;;5.90;99.90;;;;;;6266821;22;20221;-85
2023/01/09 07:04:12;;;;;;;15.67;2.40;;;5.90;99.90;;;;;;6268129;22;20185;-84
2023/01/09 07:06:38;;;;;;;1.67;0.93;;;6.00;99.90;;;;;;6263922;22;20255;-85
2023/01/09 07:09:07;;;;;;;1.10;0.60;;;6.10;99.90;;;;;;6270165;22;20156;-84
2023/01/09 07:11:32;;;;;;;2.33;0.80;;;6.10;99.90;;;;;;6268585;22;20362;-85
2023/01/09 07:13:58;;;;;;;7.07;0.90;;;6.10;99.90;;;;;;6267466;22;20147;-85
2023/01/09 07:16:24;;;;;;;1.47;0.60;;;6.10;99.90;;;;;;6264492;22;20405;-86
2023/01/09 07:18:51;;;;;;;3.92;1.63;;;6.10;99.90;;;;;;6265039;22;20140;-85
2023/01/09 07:21:16;;;;;;;28.58;11.52;;;6.10;99.90;;;;;;6269105;22;20151;-85
2023/01/09 07:23:42;;;;;;;2.43;1.20;;;6.10;99.90;;;;;;6267467;22;20233;-85
2023/01/09 07:26:08;;;;;;;4.83;1.27;;;6.10;99.90;;;;;;6265139;22;20176;-85
2023/01/09 07:28:33;;;;;;;3.97;0.70;;;6.10;99.90;;;;;;6266117;22;20148;-85
2023/01/09 07:31:03;;;;;;;3.87;1.00;;;6.20;99.90;;;;;;6266924;22;20460;-85
2023/01/09 07:33:29;;;;;;;60.38;18.30;;;6.30;99.90;;;;;;6267854;22;20159;-86
2023/01/09 07:35:54;;;;;;;3.50;1.10;;;6.30;99.90;;;;;;6269548;22;20176;-86
2023/01/09 07:38:20;;;;;;;3.30;0.77;;;6.30;99.90;;;;;;6265730;22;20248;-85
2023/01/09 07:40:45;;;;;;;5.30;1.10;;;6.30;99.90;;;;;;6269904;22;20611;-85
2023/01/09 07:43:11;;;;;;;2.40;1.07;;;6.30;99.90;;;;;;6268366;22;20232;-85
2023/01/09 07:45:36;;;;;;;4.47;1.13;;;6.30;99.90;;;;;;6268300;22;20176;-86
2023/01/09 07:48:02;;;;;;;3.50;1.00;;;6.30;99.90;;;;;;6270590;22;20163;-86
2023/01/09 07:50:27;;;;;;;8.63;2.87;;;6.40;99.90;;;;;;6267168;22;20439;-87
2023/01/09 07:52:53;;;;;;;8.93;3.70;;;6.50;99.90;;;;;;6268352;22;20190;-86
2023/01/09 07:55:18;;;;;;;3.87;1.20;;;6.50;99.90;;;;;;6263776;22;20579;-84
2023/01/09 07:57:48;;;;;;;5.40;1.30;;;6.60;99.90;;;;;;6263201;22;20152;-86
2023/01/09 08:00:14;;;;;;;4.65;1.00;;;6.70;99.90;;;;;;6267088;22;20163;-86
2023/01/09 08:02:40;;;;;;;6.90;1.17;;;6.80;99.90;;;;;;6269920;22;20171;-87
2023/01/09 08:05:07;;;;;;;4.03;0.90;;;6.90;99.90;;;;;;6261010;22;20451;-85
2023/01/09 08:07:33;;;;;;;5.07;1.17;;;6.80;99.90;;;;;;6261983;22;20179;-86
2023/01/09 08:09:58;;;;;;;3.57;1.33;;;6.80;99.90;;;;;;6269287;22;20156;-87
2023/01/09 08:12:24;;;;;;;9.47;1.17;;;6.80;99.90;;;;;;6269875;22;20528;-86
2023/01/09 08:14:50;;;;;;;6.30;0.93;;;6.70;99.90;;;;;;6267715;22;20147;-86
2023/01/09 08:17:15;;;;;;;3.07;0.80;;;6.70;99.90;;;;;;6266116;22;20180;-87
2023/01/09 08:19:42;;;;;;;7.43;1.13;;;6.50;99.90;;;;;;6262595;22;20923;-86
2023/01/09 08:22:08;;;;;;;5.00;1.45;;;6.40;99.90;;;;;;6267929;22;20641;-85
2023/01/09 08:24:35;;;;;;;4.03;1.10;;;6.40;99.90;;;;;;6268893;22;20133;-84
2023/01/09 08:27:01;;;;;;;7.50;2.40;;;6.50;99.90;;;;;;6268731;22;20413;-87
2023/01/09 08:29:26;;;;;;;6.43;2.10;;;6.50;99.90;;;;;;6267586;22;20580;-87
2023/01/09 08:31:52;;;;;;;3.33;1.23;;;6.60;99.90;;;;;;6270288;22;20166;-86
2023/01/09 08:34:17;;;;;;;5.60;0.80;;;6.60;99.90;;;;;;6272072;22;20227;-86
2023/01/09 08:36:43;;;;;;;3.23;1.37;;;6.60;99.90;;;;;;6269128;22;20175;-85
2023/01/09 08:39:09;;;;;;;6.23;2.40;;;6.70;99.90;;;;;;6270141;22;20152;-86
2023/01/09 08:47:05;;;;;;;2.63;1.05;;;7.70;99.90;;;;;;6271909;22;20195;-86
2023/01/09 08:49:40;;;;;;;3.25;0.73;;;7.80;99.90;;;;;;6271353;22;20243;-86
2023/01/09 08:52:06;;;;;;;7.25;0.75;;;7.70;99.90;;;;;;6273213;22;20152;-85
2023/01/09 08:54:34;;;;;;;1.07;0.83;;;7.50;99.90;;;;;;6275164;22;20156;-87
2023/01/09 08:56:59;;;;;;;2.60;0.80;;;7.40;99.90;;;;;;6276836;22;20180;-86
2023/01/09 08:59:25;;;;;;;3.10;1.30;;;7.40;99.90;;;;;;6276306;22;20690;-86
2023/01/09 09:01:50;;;;;;;7.00;0.80;;;7.30;99.90;;;;;;6266658;22;20183;-87
2023/01/09 09:04:16;;;;;;;10.30;1.63;;;7.20;99.90;;;;;;6266987;22;20244;-86
2023/01/09 09:06:41;;;;;;;2.80;1.07;;;7.40;99.90;;;;;;6267598;22;20179;-85
2023/01/09 09:09:07;;;;;;;4.70;1.03;;;7.70;99.90;;;;;;6265891;22;20170;-87
2023/01/09 09:11:33;;;;;;;0.73;0.60;;;7.70;99.90;;;;;;6265375;22;20489;-85
2023/01/09 09:13:59;;;;;;;6.50;0.80;;;7.60;99.90;;;;;;6266578;22;20524;-85
2023/01/09 09:16:26;;;;;;;5.63;1.50;;;7.50;99.90;;;;;;6266894;22;20634;-87
2023/01/09 09:18:51;;;;;;;6.75;1.02;;;7.50;99.90;;;;;;6266477;22;20164;-86
2023/01/09 09:21:17;;;;;;;4.43;1.13;;;7.50;99.90;;;;;;6257159;22;20148;-86
2023/01/09 09:23:45;;;;;;;1.90;0.90;;;7.50;99.90;;;;;;6268789;22;20155;-87
2023/01/09 09:26:11;;;;;;;2.55;0.90;;;7.50;99.90;;;;;;6266554;22;20607;-87
2023/01/09 09:28:36;;;;;;;2.70;1.13;;;7.60;99.90;;;;;;6269579;22;20223;-85
2023/01/09 09:31:05;;;;;;;2.23;1.00;;;7.80;99.90;;;;;;6268084;22;20152;-85
2023/01/09 09:33:31;;;;;;;1.15;0.80;;;7.80;99.90;;;;;;6268295;22;20254;-85
2023/01/09 09:35:59;;;;;;;1.30;0.50;;;7.80;99.90;;;;;;6267028;22;20178;-86
2023/01/09 09:38:25;;;;;;;4.32;1.15;;;7.90;99.90;;;;;;6268556;22;20178;-87
2023/01/09 09:44:43;;;;;;;4.43;1.00;;;7.90;99.90;;;;;;6268717;22;20965;-87
2023/01/09 09:47:27;;;;;;;1.77;1.10;;;8.10;99.90;;;;;;6265797;22;20249;-85
2023/01/09 09:50:11;;;;;;;6.07;0.88;;;8.10;99.90;;;;;;6267034;22;20525;-87
2023/01/09 09:52:57;;;;;;;2.30;1.20;;;8.30;99.90;;;;;;6269314;22;20143;-86
2023/01/09 09:55:29;;;;;;;4.68;0.60;;;8.20;99.90;;;;;;6272190;22;20167;-87
2023/01/09 09:57:57;;;;;;;2.83;1.00;;;8.20;99.90;;;;;;6268757;22;20151;-87
2023/01/09 10:00:23;;;;;;;2.15;0.65;;;8.40;99.90;;;;;;6269790;22;20577;-86
2023/01/09 10:03:11;;;;;;;0.70;0.43;;;8.50;99.90;;;;;;6267767;22;20179;-85
2023/01/09 10:05:42;;;;;;;3.58;0.95;;;8.50;99.90;;;;;;6266540;22;20629;-86
2023/01/09 10:08:41;;;;;;;4.95;1.10;;;8.40;99.90;;;;;;6264784;22;20144;-87
2023/01/09 10:11:16;;;;;;;1.35;0.98;;;8.60;99.90;;;;;;6267366;22;20143;-84
2023/01/09 10:16:28;;;;;;;3.70;0.73;;;8.30;99.90;;;;;;6268502;22;20221;-87
2023/01/09 10:19:09;;;;;;;3.65;0.90;;;8.30;99.90;;;;;;6265384;22;20166;-87
2023/01/09 10:22:09;;;;;;;2.80;0.80;;;8.50;99.90;;;;;;6259302;22;20168;-85
2023/01/09 10:25:03;;;;;;;1.48;0.70;;;8.50;99.90;;;;;;6266143;22;20140;-86
2023/01/09 10:28:12;;;;;;;2.08;1.42;;;8.40;99.90;;;;;;6266749;22;20175;-85
2023/01/09 10:30:49;;;;;;;1.67;1.10;;;8.40;99.90;;;;;;6268888;22;20149;-84
2023/01/09 10:33:55;;;;;;;4.85;0.60;;;8.50;99.90;;;;;;6266208;22;20578;-84
2023/01/09 10:36:43;;;;;;;1.20;1.10;;;8.50;99.90;;;;;;6262496;22;20185;-83
2023/01/09 10:39:17;;;;;;;3.50;1.30;;;8.60;99.90;;;;;;6269561;22;20147;-85
2023/01/09 10:42:12;;;;;;;1.40;0.68;;;8.60;99.90;;;;;;6271013;22;20603;-85
2023/01/09 10:44:52;;;;;;;3.75;0.80;;;8.50;99.90;;;;;;6269249;22;20156;-84
2023/01/09 10:47:24;;;;;;;4.10;1.50;;;8.80;99.90;;;;;;6267166;22;20198;-84
2023/01/09 10:49:51;;;;;;;0.95;0.75;;;8.90;99.90;;;;;;6270062;22;20355;-83
2023/01/09 10:52:19;;;;;;;21.17;4.45;;;8.80;99.90;;;;;;6268604;22;20171;-84
2023/01/09 10:54:56;;;;;;;6.72;4.85;;;8.90;99.90;;;;;;6269512;22;20163;-85
2023/01/09 10:57:37;;;;;;;8.13;3.97;;;8.80;99.90;;;;;;6270262;22;20486;-85
2023/01/09 11:00:04;;;;;;;1.40;1.30;;;8.80;99.90;;;;;;6269610;22;20143;-83
2023/01/09 11:02:33;;;;;;;2.83;1.23;;;8.70;99.90;;;;;;6271346;22;20544;-83
2023/01/09 11:04:58;;;;;;;3.80;0.70;;;8.70;99.90;;;;;;6268378;22;20577;-83
2023/01/09 11:07:29;;;;;;;0.90;0.63;;;8.60;99.90;;;;;;6269501;22;20249;-84
2023/01/09 11:09:59;;;;;;;2.55;1.20;;;8.70;99.90;;;;;;6270427;22;20162;-84
2023/01/09 11:12:27;;;;;;;1.80;0.90;;;8.60;99.90;;;;;;6268502;22;20225;-86
2023/01/09 11:14:52;;;;;;;2.58;0.85;;;8.70;99.90;;;;;;6267974;22;21027;-85
2023/01/09 11:17:20;;;;;;;11.80;1.30;;;8.70;99.90;;;;;;6268727;22;20227;-86
2023/01/09 11:20:05;;;;;;;3.28;0.85;;;8.70;99.90;;;;;;6268789;22;20568;-85
2023/01/09 11:22:46;;;;;;;2.15;1.10;;;8.80;99.90;;;;;;6271840;22;20274;-87
2023/01/09 11:25:14;;;;;;;2.30;1.25;;;9.10;99.90;;;;;;6269761;22;20155;-88
2023/01/09 11:27:40;;;;;;;2.45;1.60;;;9.20;99.90;;;;;;6272298;22;20148;-84
2023/01/09 11:30:11;;;;;;;2.00;0.60;;;9.10;99.90;;;;;;6269217;22;20234;-84
2023/01/09 11:32:37;;;;;;;1.48;1.08;;;9.00;99.90;;;;;;6271417;22;20144;-84
2023/01/09 11:35:29;;;;;;;2.27;0.60;;;8.90;99.90;;;;;;6267964;22;20155;-85
2023/01/09 11:38:14;;;;;;;10.75;1.58;;;8.90;99.90;;;;;;6258324;22;20244;-85
2023/01/09 11:40:48;;;;;;;3.17;1.00;;;9.10;99.90;;;;;;6270923;22;20136;-85
2023/01/09 11:43:18;;;;;;;1.75;0.50;;;9.20;99.90;;;;;;6272707;22;20210;-86
2023/01/09 11:45:48;;;;;;;2.65;0.80;;;9.40;99.90;;;;;;6271153;22;20167;-86
2023/01/09 11:48:25;;;;;;;2.67;0.63;;;9.70;99.90;;;;;;6274927;22;20159;-85
2023/01/09 11:50:57;;;;;;;1.30;0.60;;;9.80;99.90;;;;;;6275432;22;20209;-84
2023/01/09 11:53:23;;;;;;;5.78;0.95;;;9.90;99.90;;;;;;6273654;22;20179;-87
2023/01/09 11:55:59;;;;;;;4.50;1.05;;;10.00;99.90;;;;;;6271875;22;20282;-87
2023/01/09 11:58:32;;;;;;;0.50;0.40;;;9.80;99.90;;;;;;6269944;22;20152;-86
2023/01/09 12:01:33;;;;;;;0.88;0.70;;;9.60;99.90;;;;;;6267752;22;20262;-85
2023/01/09 12:04:13;;;;;;;2.45;0.50;;;9.50;99.90;;;;;;6266769;22;20198;-87
2023/01/09 12:07:12;;;;;;;4.10;0.57;;;9.00;99.90;;;;;;6272113;22;20210;-83
2023/01/09 12:10:35;;;;;;;1.77;0.55;;;8.70;99.90;;;;;;6265318;22;20156;-85
2023/01/09 12:13:32;;;;;;;0.80;0.50;;;8.50;99.90;;;;;;6142595;23;20556;-86
2023/01/09 12:16:16;;;;;;;1.05;0.50;;;8.30;99.90;;;;;;6140990;23;20473;-84
2023/01/09 12:19:03;;;;;;;0.73;0.52;;;8.00;99.90;;;;;;6283106;22;20217;-85
2023/01/09 12:21:34;;;;;;;4.80;0.60;;;7.80;99.90;;;;;;6265820;22;20239;-84
2023/01/09 12:24:49;;;;;;;5.82;0.57;;;7.60;99.90;;;;;;6266625;22;20147;-84
2023/01/09 12:27:27;;;;;;;0.52;0.45;;;7.40;99.90;;;;;;6244132;22;20214;-84
2023/01/09 12:30:16;;;;;;;0.73;0.73;;;7.50;99.90;;;;;;6264697;22;20144;-83
2023/01/09 12:32:56;;;;;;;1.15;0.52;;;7.50;99.90;;;;;;6267259;22;20148;-84
2023/01/09 12:35:40;;;;;;;0.90;0.50;;;7.60;99.90;;;;;;6268239;22;20449;-83
2023/01/09 12:38:20;;;;;;;1.88;1.65;;;7.80;99.90;;;;;;6266996;22;20164;-84
2023/01/09 12:41:07;;;;;;;0.47;0.40;;;8.20;99.90;;;;;;6267060;22;20483;-84
2023/01/09 12:43:59;;;;;;;1.67;0.50;;;8.50;99.90;;;;;;6266872;22;20171;-84
2023/01/09 12:46:42;;;;;;;1.58;0.50;;;8.70;99.90;;;;;;6269118;22;20166;-84
2023/01/09 12:49:28;;;;;;;2.70;0.52;;;8.80;99.90;;;;;;6266618;22;20148;-83
2023/01/09 12:52:04;;;;;;;0.65;0.50;;;8.90;99.90;;;;;;6265678;22;20148;-82
2023/01/09 12:54:59;;;;;;;0.90;0.70;;;8.90;99.90;;;;;;6266926;22;20171;-85
2023/01/09 12:57:34;;;;;;;0.95;0.70;;;8.60;99.90;;;;;;6260135;22;20686;-84
2023/01/09 13:00:17;;;;;;;3.08;0.52;;;8.40;99.90;;;;;;6265407;22;20190;-84
2023/01/09 13:03:15;;;;;;;2.05;0.50;;;8.30;99.90;;;;;;6268438;22;20160;-84
2023/01/09 13:05:52;;;;;;;2.63;0.90;;;8.30;99.90;;;;;;6260057;22;20172;-83
2023/01/09 13:08:22;;;;;;;0.60;0.50;;;8.40;99.90;;;;;;6266546;22;20159;-84
2023/01/09 13:10:54;;;;;;;0.73;0.50;;;8.60;99.90;;;;;;6269830;22;20148;-85
2023/01/09 13:13:26;;;;;;;2.88;0.82;;;8.60;99.90;;;;;;6269317;22;20190;-85
2023/01/09 13:15:55;;;;;;;3.17;1.02;;;8.70;99.90;;;;;;6269584;22;20172;-86
2023/01/09 13:18:40;;;;;;;1.35;0.65;;;8.40;99.90;;;;;;6267479;22;20159;-84
2023/01/09 13:21:06;;;;;;;2.35;0.95;;;8.00;99.90;;;;;;6263176;22;20187;-85
2023/01/09 13:24:06;;;;;;;1.88;0.95;;;7.70;99.90;;;;;;6267293;22;20171;-85
2023/01/09 13:26:40;;;;;;;1.40;0.45;;;7.70;99.90;;;;;;6262393;22;20172;-85
2023/01/09 13:29:32;;;;;;;2.38;0.80;;;7.70;99.90;;;;;;6268954;22;20155;-85
2023/01/09 13:32:13;;;;;;;3.33;0.85;;;7.60;99.90;;;;;;6252614;22;20166;-85
2023/01/09 13:34:40;;;;;;;1.58;0.50;;;7.60;99.90;;;;;;6264880;22;20155;-86